Time;durP1;ratioP1;P1;durP2;ratioP2;P2;SDS_P1;SDS_P2;PMS_P1;PMS_P2;Temp;Humidity;BMP_temperature;BMP_pressure;BME280_temperature;BME280_humidity;BME280_pressure;Samples;Min_cycle;Max_cycle;Signal;HPM_P1;HPM_P2
2020/12/07 00:01:20;;;;;;;3.77;2.33;;;5.20;99.90;;;;;;5035144;28;20243;-64
2020/12/07 00:03:45;;;;;;;1.70;0.20;;;5.10;99.90;;;;;;5032460;28;20667;-65
2020/12/07 00:06:17;;;;;;;16.00;9.90;;;5.10;99.90;;;;;;5036721;28;20544;-65
2020/12/07 00:08:42;;;;;;;1.80;0.45;;;5.10;99.90;;;;;;5031602;28;20198;-65
2020/12/07 00:11:12;;;;;;;9.30;4.60;;;5.10;99.90;;;;;;5030460;28;20243;-65
2020/12/07 00:13:38;;;;;;;2.30;0.63;;;5.10;99.90;;;;;;5037897;28;20188;-65
2020/12/07 00:16:06;;;;;;;5.90;4.30;;;5.20;99.90;;;;;;5039203;28;20182;-65
2020/12/07 00:18:32;;;;;;;7.15;3.75;;;5.10;99.90;;;;;;5037027;28;20263;-66
2020/12/07 00:20:57;;;;;;;3.33;1.23;;;5.10;99.90;;;;;;5037913;28;20635;-66
2020/12/07 00:23:23;;;;;;;6.97;4.10;;;5.10;99.90;;;;;;5036137;28;20204;-65
2020/12/07 00:25:48;;;;;;;9.37;5.00;;;5.10;99.90;;;;;;5036040;28;20178;-65
2020/12/07 00:28:14;;;;;;;2.53;1.00;;;5.10;99.90;;;;;;5038611;28;20212;-64
2020/12/07 00:30:39;;;;;;;1.90;0.47;;;5.10;99.90;;;;;;5037038;28;20290;-65
2020/12/07 00:33:05;;;;;;;10.90;8.07;;;5.10;99.90;;;;;;5034784;28;20190;-64
2020/12/07 00:35:30;;;;;;;5.80;3.30;;;5.10;99.90;;;;;;5038050;28;20201;-64
2020/12/07 00:37:56;;;;;;;5.27;3.83;;;5.00;99.90;;;;;;5032738;28;20217;-64
2020/12/07 00:40:21;;;;;;;5.87;4.07;;;5.00;99.90;;;;;;5036354;28;20705;-65
2020/12/07 00:42:47;;;;;;;4.33;3.20;;;5.10;99.90;;;;;;5038653;28;20197;-64
2020/12/07 00:45:12;;;;;;;2.27;0.90;;;5.10;99.90;;;;;;5036859;28;20197;-64
2020/12/07 00:47:38;;;;;;;2.93;0.97;;;5.10;99.90;;;;;;5037202;28;20202;-64
2020/12/07 00:50:04;;;;;;;1.70;0.30;;;5.10;99.90;;;;;;5036575;28;20206;-64
2020/12/07 00:52:29;;;;;;;11.20;7.67;;;5.10;99.90;;;;;;5035483;28;20190;-64
2020/12/07 00:54:55;;;;;;;6.33;2.20;;;5.20;99.90;;;;;;5037732;28;20577;-64
2020/12/07 00:57:20;;;;;;;5.10;2.93;;;5.10;99.90;;;;;;5035742;28;20206;-65
2020/12/07 00:59:46;;;;;;;12.00;6.60;;;5.10;99.90;;;;;;5030028;28;20273;-64
2020/12/07 01:02:11;;;;;;;2.40;1.03;;;5.20;99.90;;;;;;5034080;28;20188;-65
2020/12/07 01:04:37;;;;;;;10.80;5.13;;;5.20;99.90;;;;;;5030926;28;20746;-65
2020/12/07 01:07:03;;;;;;;3.30;1.07;;;5.20;99.90;;;;;;5034487;28;20576;-65
2020/12/07 01:09:28;;;;;;;8.00;4.60;;;5.20;99.90;;;;;;5036062;28;20209;-65
2020/12/07 01:11:56;;;;;;;1.77;0.30;;;5.20;99.90;;;;;;5046052;28;20948;-65
2020/12/07 01:14:22;;;;;;;1.80;0.40;;;5.30;99.90;;;;;;5045221;28;20186;-64
2020/12/07 01:16:49;;;;;;;3.50;1.90;;;5.30;99.90;;;;;;5043364;28;20460;-65
2020/12/07 01:19:14;;;;;;;4.35;2.67;;;5.30;99.90;;;;;;5040540;28;20204;-64
2020/12/07 01:21:40;;;;;;;1.90;0.60;;;5.20;99.90;;;;;;5042212;28;20213;-64
2020/12/07 01:24:05;;;;;;;2.30;0.80;;;5.30;99.90;;;;;;5041366;28;20190;-65
2020/12/07 01:26:31;;;;;;;9.60;3.77;;;5.30;99.90;;;;;;5038720;28;20193;-64
2020/12/07 01:28:58;;;;;;;1.70;0.20;;;5.20;99.90;;;;;;5038609;28;20222;-64
2020/12/07 01:31:23;;;;;;;10.40;5.47;;;5.20;99.90;;;;;;5039809;28;20440;-64
2020/12/07 01:33:49;;;;;;;5.07;3.10;;;5.20;99.90;;;;;;5040318;28;20487;-63
2020/12/07 01:36:15;;;;;;;15.70;6.33;;;5.20;99.90;;;;;;5035028;28;20719;-64
2020/12/07 01:38:40;;;;;;;4.87;2.60;;;5.20;99.90;;;;;;5033393;28;20201;-64
2020/12/07 01:41:06;;;;;;;4.83;1.63;;;5.10;99.90;;;;;;5028078;28;20434;-64
2020/12/07 01:43:31;;;;;;;5.47;3.40;;;5.10;99.90;;;;;;5033215;28;20185;-64
2020/12/07 01:45:57;;;;;;;8.03;4.53;;;5.10;99.90;;;;;;5032675;28;20770;-64
2020/12/07 01:48:25;;;;;;;7.97;3.42;;;5.10;99.90;;;;;;5029017;28;20198;-64
2020/12/07 01:50:52;;;;;;;15.82;5.65;;;5.10;99.90;;;;;;5030583;28;20661;-65
2020/12/07 01:53:18;;;;;;;1.70;0.20;;;5.10;99.90;;;;;;5029785;28;20270;-64
2020/12/07 01:55:44;;;;;;;1.73;0.30;;;5.10;99.90;;;;;;5031941;28;20206;-65
2020/12/07 01:58:10;;;;;;;1.80;0.20;;;5.10;99.90;;;;;;5034198;28;20674;-65
2020/12/07 02:00:36;;;;;;;2.58;0.93;;;5.20;99.90;;;;;;5028354;28;20475;-64
2020/12/07 02:03:02;;;;;;;6.03;2.20;;;5.20;99.90;;;;;;5039114;28;20265;-64
2020/12/07 02:05:28;;;;;;;4.63;3.13;;;5.20;99.90;;;;;;5042054;28;20194;-64
2020/12/07 02:08:13;;;;;;;9.57;3.65;;;5.20;99.90;;;;;;5039044;28;20220;-64
2020/12/07 02:10:39;;;;;;;11.50;7.03;;;5.20;99.90;;;;;;5031452;28;20717;-64
2020/12/07 02:13:05;;;;;;;15.90;6.63;;;5.20;99.90;;;;;;5034206;28;20184;-64
2020/12/07 02:15:31;;;;;;;9.23;6.00;;;5.20;99.90;;;;;;5032949;28;20451;-64
2020/12/07 02:17:56;;;;;;;12.30;7.27;;;5.20;99.90;;;;;;5033031;28;20289;-64
2020/12/07 02:20:22;;;;;;;7.73;4.27;;;5.20;99.90;;;;;;5033190;28;20946;-64
2020/12/07 02:22:47;;;;;;;2.63;0.87;;;5.20;99.90;;;;;;5022962;28;20195;-64
2020/12/07 02:25:13;;;;;;;2.30;0.73;;;5.20;99.90;;;;;;5031827;28;20232;-64
2020/12/07 02:27:38;;;;;;;1.70;0.20;;;5.20;99.90;;;;;;5023661;28;20300;-64
2020/12/07 02:30:04;;;;;;;2.57;0.77;;;5.30;99.90;;;;;;5031517;28;20216;-64
2020/12/07 02:32:29;;;;;;;11.23;3.30;;;5.30;99.90;;;;;;5031070;28;20193;-64
2020/12/07 02:34:55;;;;;;;11.50;6.53;;;5.30;99.90;;;;;;5023120;28;20190;-64
2020/12/07 02:37:22;;;;;;;1.73;0.23;;;5.30;99.90;;;;;;5026020;28;20828;-65
2020/12/07 02:39:48;;;;;;;3.40;3.13;;;5.30;99.90;;;;;;5031918;28;20213;-66
2020/12/07 02:42:14;;;;;;;17.70;12.00;;;5.30;99.90;;;;;;5022460;28;20560;-65
2020/12/07 02:44:40;;;;;;;3.05;1.08;;;5.20;99.90;;;;;;5026749;28;20192;-64
2020/12/07 02:47:05;;;;;;;2.47;1.13;;;5.20;99.90;;;;;;5032501;28;20214;-65
2020/12/07 02:49:31;;;;;;;2.93;2.20;;;5.20;99.90;;;;;;5031310;28;20233;-65
2020/12/07 02:51:57;;;;;;;4.40;2.27;;;5.20;99.90;;;;;;5032111;28;20384;-64
2020/12/07 02:54:22;;;;;;;1.73;0.30;;;5.10;99.90;;;;;;5032992;28;20189;-64
2020/12/07 02:56:47;;;;;;;5.97;3.07;;;5.20;99.90;;;;;;5030458;28;20197;-64
2020/12/07 02:59:13;;;;;;;8.60;1.70;;;5.20;99.90;;;;;;5031037;28;20194;-64
2020/12/07 03:01:38;;;;;;;3.23;2.50;;;5.20;99.90;;;;;;5028951;28;20743;-64
2020/12/07 03:04:04;;;;;;;1.70;0.20;;;5.30;99.90;;;;;;5029097;28;20190;-64
2020/12/07 03:06:30;;;;;;;1.70;0.30;;;5.30;99.90;;;;;;5031873;28;20719;-64
2020/12/07 03:08:55;;;;;;;6.77;3.47;;;5.20;99.90;;;;;;5030179;28;20202;-64
2020/12/07 03:11:22;;;;;;;2.90;1.70;;;5.20;99.90;;;;;;5029407;28;20440;-64
2020/12/07 03:13:47;;;;;;;12.75;7.60;;;5.10;99.90;;;;;;5032178;28;20178;-63
2020/12/07 03:16:13;;;;;;;3.73;1.33;;;5.10;99.90;;;;;;5030723;28;20186;-63
2020/12/07 03:18:38;;;;;;;11.40;4.77;;;5.10;99.90;;;;;;5029134;28;20276;-64
2020/12/07 03:21:04;;;;;;;2.10;1.20;;;5.00;99.90;;;;;;5046251;28;20186;-64
2020/12/07 03:23:29;;;;;;;6.40;4.20;;;5.00;99.90;;;;;;5028794;28;20296;-64
2020/12/07 03:25:55;;;;;;;6.13;2.97;;;5.10;99.90;;;;;;5030695;28;20328;-64
2020/12/07 03:28:20;;;;;;;1.70;0.20;;;5.10;99.90;;;;;;5030677;28;20225;-64
2020/12/07 03:30:46;;;;;;;1.80;0.50;;;5.10;99.90;;;;;;5028890;28;20293;-64
2020/12/07 03:33:11;;;;;;;1.70;0.20;;;5.10;99.90;;;;;;5030679;28;20690;-64
2020/12/07 03:35:37;;;;;;;1.70;0.20;;;5.10;99.90;;;;;;5028072;28;20228;-63
2020/12/07 03:38:02;;;;;;;7.17;5.87;;;5.20;99.90;;;;;;5028597;28;20202;-64
2020/12/07 03:40:31;;;;;;;2.43;1.07;;;5.20;99.90;;;;;;5031303;28;20210;-63
2020/12/07 03:42:56;;;;;;;4.28;3.85;;;5.20;99.90;;;;;;5030579;28;20198;-64
2020/12/07 03:45:22;;;;;;;12.07;8.30;;;5.20;99.90;;;;;;5027131;28;20261;-64
2020/12/07 03:47:47;;;;;;;1.70;0.20;;;5.20;99.90;;;;;;5029655;28;20218;-64
2020/12/07 03:50:13;;;;;;;1.70;0.30;;;5.10;99.90;;;;;;5028928;28;20672;-64
2020/12/07 03:52:38;;;;;;;8.10;3.23;;;5.10;99.90;;;;;;5027233;28;20183;-64
2020/12/07 03:55:04;;;;;;;4.23;2.53;;;5.00;99.90;;;;;;5030564;28;20181;-63
2020/12/07 03:57:29;;;;;;;16.20;10.50;;;5.00;99.90;;;;;;5028874;28;20688;-64
2020/12/07 03:59:55;;;;;;;1.70;0.20;;;5.00;99.90;;;;;;5028736;28;20269;-64
2020/12/07 04:02:20;;;;;;;2.53;1.90;;;4.90;99.90;;;;;;5032799;28;20209;-63
2020/12/07 04:04:53;;;;;;;1.90;0.70;;;5.00;99.90;;;;;;5039159;28;20174;-64
2020/12/07 04:07:18;;;;;;;4.80;2.83;;;4.90;99.90;;;;;;5034471;28;20202;-64
2020/12/07 04:09:44;;;;;;;1.70;0.20;;;4.90;99.90;;;;;;5046975;28;20456;-64
2020/12/07 04:12:09;;;;;;;15.73;10.53;;;5.00;99.90;;;;;;5044218;28;20354;-65
2020/12/07 04:14:35;;;;;;;5.40;2.60;;;4.90;99.90;;;;;;5042739;28;20193;-64
2020/12/07 04:17:00;;;;;;;6.20;3.23;;;4.90;99.90;;;;;;5029115;28;20225;-65
2020/12/07 04:19:26;;;;;;;1.80;0.50;;;4.90;99.90;;;;;;5035486;28;20217;-63
2020/12/07 04:21:52;;;;;;;1.70;0.20;;;5.00;99.90;;;;;;5036871;28;20573;-63
2020/12/07 04:24:17;;;;;;;1.70;0.20;;;5.00;99.90;;;;;;5037478;28;20216;-63
2020/12/07 04:26:43;;;;;;;1.70;0.20;;;5.00;99.90;;;;;;5055242;23;20210;-56
2020/12/07 04:29:08;;;;;;;1.70;0.20;;;5.10;99.90;;;;;;5051375;28;20209;-58
2020/12/07 04:31:34;;;;;;;5.97;3.80;;;5.00;99.90;;;;;;5050839;28;20227;-58
2020/12/07 04:33:59;;;;;;;5.80;2.60;;;5.00;99.90;;;;;;5049213;28;20208;-58
2020/12/07 04:36:25;;;;;;;3.37;2.50;;;5.00;99.90;;;;;;5050373;28;20190;-58
2020/12/07 04:38:50;;;;;;;9.10;6.23;;;4.90;99.90;;;;;;5053547;28;20263;-57
2020/12/07 04:41:16;;;;;;;2.07;0.50;;;4.90;99.90;;;;;;5054846;28;20178;-58
2020/12/07 04:43:42;;;;;;;3.00;1.07;;;4.90;99.90;;;;;;5055802;28;20189;-58
2020/12/07 04:46:07;;;;;;;2.60;0.65;;;4.90;99.90;;;;;;5055342;28;20193;-58
2020/12/07 04:48:35;;;;;;;5.27;2.20;;;5.00;99.90;;;;;;5053146;28;20207;-58
2020/12/07 04:51:02;;;;;;;1.75;0.20;;;4.90;99.90;;;;;;5048327;28;20182;-58
2020/12/07 04:53:29;;;;;;;1.80;0.20;;;4.90;99.90;;;;;;5054271;28;20544;-59
2020/12/07 04:55:57;;;;;;;7.15;3.47;;;4.90;99.90;;;;;;5057837;28;20181;-66
2020/12/07 04:58:24;;;;;;;1.70;0.20;;;4.90;99.90;;;;;;5068085;28;20224;-61
2020/12/07 05:00:50;;;;;;;6.03;3.42;;;4.90;99.90;;;;;;5072585;28;20194;-58
2020/12/07 05:03:15;;;;;;;1.70;0.20;;;4.90;99.90;;;;;;5074767;28;20200;-58
2020/12/07 05:05:41;;;;;;;1.80;0.40;;;4.90;99.90;;;;;;5076391;28;20177;-58
2020/12/07 05:08:07;;;;;;;1.70;0.20;;;4.90;99.90;;;;;;5066818;28;20232;-58
2020/12/07 05:10:42;;;;;;;3.90;1.97;;;4.90;99.90;;;;;;5057242;28;20680;-58
2020/12/07 05:13:18;;;;;;;3.65;1.35;;;4.90;99.90;;;;;;5055764;28;20209;-58
2020/12/07 05:15:44;;;;;;;3.22;2.22;;;5.00;99.90;;;;;;5053688;28;20178;-60
2020/12/07 05:18:10;;;;;;;9.63;4.57;;;5.00;99.90;;;;;;5069875;28;20704;-58
2020/12/07 05:20:35;;;;;;;1.90;0.80;;;4.90;99.90;;;;;;5055523;28;20196;-61
2020/12/07 05:23:01;;;;;;;2.93;0.40;;;4.90;99.90;;;;;;5071646;28;20181;-59
2020/12/07 05:25:28;;;;;;;1.70;0.20;;;5.00;99.90;;;;;;5064755;28;20190;-59
2020/12/07 05:27:57;;;;;;;3.45;1.38;;;5.00;99.90;;;;;;5075749;28;20232;-58
2020/12/07 05:30:29;;;;;;;6.32;2.42;;;5.00;99.90;;;;;;5065484;28;20772;-58
2020/12/07 05:32:54;;;;;;;2.00;0.60;;;5.00;99.90;;;;;;5053469;28;20212;-58
2020/12/07 05:35:20;;;;;;;6.20;5.23;;;5.00;99.90;;;;;;5056257;28;20189;-58
2020/12/07 05:37:45;;;;;;;2.63;1.03;;;4.90;99.90;;;;;;5054400;28;20212;-58
2020/12/07 05:40:13;;;;;;;1.80;0.20;;;5.00;99.90;;;;;;5054579;28;20189;-58
2020/12/07 05:42:39;;;;;;;1.70;0.20;;;5.00;99.90;;;;;;5051758;28;20193;-58
2020/12/07 05:45:06;;;;;;;7.82;5.20;;;4.90;99.90;;;;;;5044162;28;20201;-58
2020/12/07 05:47:33;;;;;;;1.70;0.20;;;5.00;99.90;;;;;;5054661;28;20232;-58
2020/12/07 05:50:01;;;;;;;3.85;2.15;;;5.00;99.90;;;;;;5052779;28;20208;-58
2020/12/07 05:52:44;;;;;;;1.70;0.30;;;5.10;99.90;;;;;;5045121;28;20209;-58
2020/12/07 05:55:12;;;;;;;3.28;1.88;;;5.10;99.90;;;;;;5053953;28;20258;-60
2020/12/07 05:58:05;;;;;;;6.07;3.33;;;5.00;99.90;;;;;;5053916;28;20201;-58
2020/12/07 06:00:32;;;;;;;5.20;3.35;;;5.00;99.90;;;;;;5053123;28;20193;-58
2020/12/07 06:03:00;;;;;;;1.70;0.20;;;4.90;99.90;;;;;;5052006;28;20568;-58
2020/12/07 06:05:25;;;;;;;14.93;9.20;;;4.90;99.90;;;;;;5052433;28;20573;-57
2020/12/07 06:08:04;;;;;;;12.67;6.77;;;4.90;99.90;;;;;;5054056;28;20690;-58
2020/12/07 06:10:37;;;;;;;2.03;0.88;;;4.90;99.90;;;;;;5047693;28;20711;-58
2020/12/07 06:13:06;;;;;;;6.40;4.22;;;4.90;99.90;;;;;;5052826;28;20185;-58
2020/12/07 06:15:32;;;;;;;1.80;0.20;;;4.90;99.90;;;;;;5052800;28;20189;-58
2020/12/07 06:17:57;;;;;;;2.67;1.23;;;4.90;99.90;;;;;;5053763;28;20197;-57
2020/12/07 06:20:36;;;;;;;12.20;6.40;;;4.90;99.90;;;;;;5053786;28;20189;-58
2020/12/07 06:23:01;;;;;;;1.98;0.73;;;4.90;99.90;;;;;;5052936;28;20212;-58
2020/12/07 06:25:29;;;;;;;10.60;7.47;;;4.90;99.90;;;;;;5050845;28;20639;-59
2020/12/07 06:27:58;;;;;;;13.15;7.40;;;4.90;99.90;;;;;;5051748;28;20471;-58
2020/12/07 06:30:30;;;;;;;20.00;11.02;;;4.80;99.90;;;;;;5050386;28;20205;-58
2020/12/07 06:32:55;;;;;;;1.70;0.20;;;4.80;99.90;;;;;;5050312;28;20204;-58
2020/12/07 06:35:25;;;;;;;1.80;0.30;;;4.90;99.90;;;;;;5051931;28;20205;-58
2020/12/07 06:37:51;;;;;;;23.77;11.50;;;4.90;99.90;;;;;;5050869;28;20682;-58
2020/12/07 06:40:20;;;;;;;6.17;2.93;;;4.90;99.90;;;;;;5053717;28;20208;-58
2020/12/07 06:42:47;;;;;;;16.60;11.25;;;4.90;99.90;;;;;;5050500;28;20439;-58
2020/12/07 06:45:30;;;;;;;4.82;4.00;;;4.80;99.90;;;;;;5051365;28;20189;-58
2020/12/07 06:48:04;;;;;;;2.10;0.60;;;4.90;99.90;;;;;;5051279;28;20205;-59
2020/12/07 06:50:35;;;;;;;4.25;1.95;;;4.80;99.90;;;;;;5050437;28;20223;-58
2020/12/07 06:53:01;;;;;;;3.10;2.08;;;4.80;99.90;;;;;;5050875;28;20204;-60
2020/12/07 06:55:26;;;;;;;17.10;11.03;;;4.80;99.90;;;;;;5040709;28;20650;-59
2020/12/07 06:57:52;;;;;;;3.00;1.20;;;4.80;99.90;;;;;;5052010;28;20212;-59
2020/12/07 07:00:19;;;;;;;1.70;0.20;;;4.70;99.90;;;;;;5051676;28;20181;-59
2020/12/07 07:02:46;;;;;;;5.55;2.78;;;4.80;99.90;;;;;;5048365;28;20448;-58
2020/12/07 07:05:14;;;;;;;1.80;0.40;;;4.80;99.90;;;;;;5050409;28;20256;-58
2020/12/07 07:07:40;;;;;;;3.70;2.40;;;4.80;99.90;;;;;;5049492;28;20287;-58
2020/12/07 07:10:08;;;;;;;1.70;0.20;;;4.80;99.90;;;;;;5052154;28;20212;-58
2020/12/07 07:12:34;;;;;;;20.60;11.88;;;4.80;99.90;;;;;;5050142;28;20662;-58
2020/12/07 07:15:00;;;;;;;1.70;0.20;;;4.80;99.90;;;;;;5050937;28;20254;-59
2020/12/07 07:17:31;;;;;;;1.70;0.20;;;4.80;99.90;;;;;;5051367;28;20228;-58
2020/12/07 07:19:57;;;;;;;9.13;4.68;;;4.80;99.90;;;;;;5051625;28;20262;-58
2020/12/07 07:22:24;;;;;;;1.70;0.35;;;4.70;99.90;;;;;;5051742;28;20192;-59
2020/12/07 07:30:00;;;;;;;1.70;0.20;;;4.80;99.90;;;;;;5040771;28;20216;-59
2020/12/07 07:32:25;;;;;;;3.60;1.80;;;4.80;99.90;;;;;;5041642;28;20572;-59
2020/12/07 07:34:51;;;;;;;1.70;0.30;;;4.70;99.90;;;;;;5046887;28;20247;-59
2020/12/07 07:37:17;;;;;;;24.00;10.50;;;4.80;99.90;;;;;;5046397;28;20289;-59
2020/12/07 07:39:45;;;;;;;13.10;9.38;;;4.80;99.90;;;;;;5046240;28;20220;-59
2020/12/07 07:42:13;;;;;;;4.05;2.83;;;4.80;99.90;;;;;;5050658;28;20189;-58
2020/12/07 07:44:41;;;;;;;8.23;4.68;;;4.80;99.90;;;;;;5051453;28;20215;-58
2020/12/07 07:47:12;;;;;;;5.82;3.13;;;4.80;99.90;;;;;;5050837;28;20818;-59
2020/12/07 07:50:03;;;;;;;1.77;0.30;;;4.70;99.90;;;;;;5046895;28;20216;-58
2020/12/07 07:53:10;;;;;;;1.70;0.20;;;4.70;99.90;;;;;;5046513;28;20185;-59
2020/12/07 08:03:35;;;;;;;5.63;4.60;;;4.70;99.90;;;;;;5073827;28;20184;-59
2020/12/07 08:06:32;;;;;;;2.45;1.30;;;4.70;99.90;;;;;;5071281;28;20181;-58
2020/12/07 08:16:42;;;;;;;1.70;0.20;;;4.70;99.90;;;;;;5055408;28;20191;-58
2020/12/07 08:19:25;;;;;;;5.67;2.50;;;4.70;99.90;;;;;;5057120;28;20192;-59
2020/12/07 08:21:51;;;;;;;1.70;0.20;;;4.70;99.90;;;;;;5057516;28;20201;-58
2020/12/07 08:24:17;;;;;;;2.00;0.75;;;4.80;99.90;;;;;;5056101;28;20776;-59
2020/12/07 08:26:43;;;;;;;10.10;5.93;;;4.70;99.90;;;;;;5054935;28;20231;-58
2020/12/07 08:29:10;;;;;;;1.70;0.20;;;4.80;99.90;;;;;;5055115;28;20292;-58
2020/12/07 08:31:37;;;;;;;16.40;10.57;;;4.80;99.90;;;;;;5056669;28;20264;-58
2020/12/07 08:34:10;;;;;;;1.70;0.20;;;4.80;99.90;;;;;;5055584;28;20181;-58
2020/12/07 08:36:36;;;;;;;1.70;0.20;;;4.80;99.90;;;;;;5055402;28;20247;-58
2020/12/07 08:39:04;;;;;;;1.97;0.87;;;4.90;99.90;;;;;;5052822;28;20224;-57
2020/12/07 08:41:32;;;;;;;1.75;0.20;;;4.90;99.90;;;;;;5062496;28;20223;-58
2020/12/07 08:44:00;;;;;;;2.28;0.98;;;4.80;99.90;;;;;;5060506;28;20181;-57
2020/12/07 08:46:29;;;;;;;1.70;0.20;;;4.80;99.90;;;;;;5054181;28;20185;-58
2020/12/07 08:48:55;;;;;;;12.82;6.88;;;4.90;99.90;;;;;;5057450;28;20254;-58
2020/12/07 08:51:26;;;;;;;14.82;14.02;;;4.90;99.90;;;;;;5057264;28;20672;-58
2020/12/07 08:53:52;;;;;;;2.15;1.15;;;4.90;99.90;;;;;;5053816;28;20193;-58
2020/12/07 08:56:18;;;;;;;3.87;1.90;;;5.00;99.90;;;;;;5054753;28;20580;-58
2020/12/07 08:58:44;;;;;;;8.33;4.93;;;5.00;99.90;;;;;;5053266;28;20288;-58
2020/12/07 09:01:10;;;;;;;4.13;1.63;;;4.90;99.90;;;;;;5053245;28;20231;-58
2020/12/07 09:03:37;;;;;;;1.75;0.20;;;4.90;99.90;;;;;;5054645;28;20186;-58
2020/12/07 09:06:06;;;;;;;1.70;0.20;;;5.00;99.90;;;;;;5055073;28;20184;-58
2020/12/07 09:08:33;;;;;;;1.77;0.30;;;5.10;99.90;;;;;;5053369;28;20201;-58
2020/12/07 09:10:58;;;;;;;1.70;0.20;;;5.10;99.90;;;;;;5054423;28;20209;-58
2020/12/07 09:13:24;;;;;;;1.70;0.20;;;5.10;99.90;;;;;;5056343;28;20193;-58
2020/12/07 09:15:50;;;;;;;1.80;0.50;;;5.10;99.90;;;;;;5052610;28;20181;-57
2020/12/07 09:18:16;;;;;;;2.08;0.65;;;5.10;99.90;;;;;;5059104;28;20567;-57
2020/12/07 09:20:41;;;;;;;1.80;0.73;;;5.00;99.90;;;;;;5053431;28;20193;-58
2020/12/07 09:23:07;;;;;;;3.70;3.10;;;5.10;99.90;;;;;;5049644;28;20189;-58
2020/12/07 09:25:32;;;;;;;1.70;0.20;;;5.20;99.90;;;;;;5050474;28;20181;-59
2020/12/07 09:27:58;;;;;;;11.00;6.27;;;5.20;99.90;;;;;;5051448;28;20227;-58
2020/12/07 09:30:24;;;;;;;1.70;0.20;;;5.10;99.90;;;;;;5047453;28;20208;-59
2020/12/07 09:32:49;;;;;;;1.70;0.30;;;5.20;99.90;;;;;;5047505;28;20177;-59
2020/12/07 09:35:15;;;;;;;1.70;0.20;;;5.20;99.90;;;;;;5052082;28;20256;-59
2020/12/07 09:37:41;;;;;;;1.70;0.30;;;5.20;99.90;;;;;;5061414;28;20209;-60
2020/12/07 09:40:10;;;;;;;1.90;0.50;;;5.30;99.90;;;;;;5044829;28;20189;-57
2020/12/07 09:42:37;;;;;;;2.72;0.88;;;5.30;99.90;;;;;;5050690;28;20802;-57
2020/12/07 09:45:03;;;;;;;1.70;0.20;;;5.40;99.90;;;;;;5053387;28;20242;-59
2020/12/07 09:47:29;;;;;;;8.30;4.95;;;5.40;99.90;;;;;;5050733;28;20811;-59
2020/12/07 09:49:54;;;;;;;1.90;0.40;;;5.40;99.90;;;;;;5054242;28;20209;-59
2020/12/07 09:52:20;;;;;;;2.20;0.77;;;5.40;99.90;;;;;;5052740;28;20192;-59
2020/12/07 09:54:47;;;;;;;3.87;2.10;;;5.30;99.90;;;;;;5052501;28;20189;-59
2020/12/07 09:57:13;;;;;;;1.70;0.20;;;5.30;99.90;;;;;;5054292;28;20209;-59
2020/12/07 09:59:39;;;;;;;1.90;0.37;;;5.20;99.90;;;;;;5050749;28;20196;-58
2020/12/07 10:02:04;;;;;;;1.70;0.20;;;5.30;99.90;;;;;;5054947;28;20968;-58
2020/12/07 10:04:30;;;;;;;3.80;1.90;;;5.30;99.90;;;;;;5051364;28;20709;-58
2020/12/07 10:06:55;;;;;;;6.50;3.60;;;5.30;99.90;;;;;;5052998;28;20197;-57
2020/12/07 10:09:21;;;;;;;1.70;0.20;;;5.30;99.90;;;;;;5051853;28;20291;-59
2020/12/07 10:11:47;;;;;;;6.70;3.10;;;5.30;99.90;;;;;;5050760;28;20188;-57
2020/12/07 10:14:13;;;;;;;1.70;0.20;;;5.40;99.90;;;;;;5053344;28;20177;-57
2020/12/07 10:16:45;;;;;;;4.30;1.70;;;5.30;99.90;;;;;;5050001;28;20428;-58
2020/12/07 10:19:12;;;;;;;5.97;3.63;;;5.40;99.90;;;;;;5044477;28;20442;-59
2020/12/07 10:21:37;;;;;;;5.72;2.40;;;5.40;99.90;;;;;;5051816;28;20188;-57
2020/12/07 10:24:03;;;;;;;1.70;0.20;;;5.50;99.90;;;;;;5051866;28;20185;-57
2020/12/07 10:26:29;;;;;;;1.80;0.20;;;5.40;99.90;;;;;;5052716;28;20256;-57
2020/12/07 10:28:55;;;;;;;9.07;4.88;;;5.50;99.90;;;;;;5052055;28;20209;-59
2020/12/07 10:31:22;;;;;;;4.23;2.10;;;5.40;99.90;;;;;;5053089;28;20212;-57
2020/12/07 10:33:48;;;;;;;1.70;0.20;;;5.50;99.90;;;;;;5049496;28;20238;-63
2020/12/07 10:36:14;;;;;;;1.70;0.20;;;5.50;99.90;;;;;;5047740;28;20552;-59
2020/12/07 10:38:39;;;;;;;11.10;6.73;;;5.50;99.90;;;;;;5049889;28;20464;-59
2020/12/07 10:41:05;;;;;;;1.70;0.20;;;5.50;99.90;;;;;;5046390;28;20192;-59
2020/12/07 10:43:31;;;;;;;1.90;0.70;;;5.50;99.90;;;;;;5047363;28;20189;-58
2020/12/07 10:45:57;;;;;;;2.08;0.88;;;5.60;99.90;;;;;;5048233;28;20208;-59
2020/12/07 10:48:23;;;;;;;1.80;0.40;;;5.60;99.90;;;;;;5052521;28;20664;-56
2020/12/07 10:50:48;;;;;;;1.70;0.20;;;5.60;99.90;;;;;;5051348;28;20220;-56
2020/12/07 10:53:14;;;;;;;2.43;0.97;;;5.70;99.90;;;;;;5051801;28;20306;-57
2020/12/07 10:55:40;;;;;;;1.70;0.20;;;5.70;99.90;;;;;;5050993;28;20751;-57
2020/12/07 10:58:06;;;;;;;3.10;2.80;;;5.70;99.90;;;;;;5050691;28;20572;-59
2020/12/07 11:00:32;;;;;;;1.70;0.20;;;5.80;99.90;;;;;;5051566;28;20189;-56
2020/12/07 11:02:57;;;;;;;1.70;0.20;;;5.80;99.90;;;;;;5051008;28;20659;-59
2020/12/07 11:05:23;;;;;;;1.70;0.20;;;5.80;99.90;;;;;;5050013;28;20189;-58
2020/12/07 11:07:51;;;;;;;1.70;0.20;;;5.80;99.90;;;;;;5051345;28;20576;-58
2020/12/07 11:10:16;;;;;;;1.70;0.20;;;5.90;99.90;;;;;;5051598;28;20205;-59
2020/12/07 11:12:46;;;;;;;5.67;2.97;;;5.90;99.90;;;;;;5049149;28;20439;-57
2020/12/07 11:15:11;;;;;;;4.07;1.70;;;5.80;99.90;;;;;;5050988;28;20590;-62
2020/12/07 11:17:37;;;;;;;1.70;0.20;;;5.80;99.90;;;;;;5050585;28;20464;-59
2020/12/07 11:20:02;;;;;;;1.77;0.20;;;5.80;99.90;;;;;;5049464;28;20181;-58
2020/12/07 11:22:28;;;;;;;1.80;0.20;;;5.70;99.90;;;;;;5046101;28;20182;-57
2020/12/07 11:24:53;;;;;;;2.77;1.60;;;5.80;99.90;;;;;;5050765;28;20261;-57
2020/12/07 11:27:19;;;;;;;12.43;3.70;;;5.80;99.90;;;;;;5050498;28;20710;-58
2020/12/07 11:29:44;;;;;;;1.77;0.20;;;5.80;99.90;;;;;;5051600;28;20209;-57
2020/12/07 11:32:10;;;;;;;1.70;0.20;;;5.90;99.90;;;;;;5050240;28;20698;-59
2020/12/07 11:34:35;;;;;;;1.90;0.80;;;6.00;99.90;;;;;;5051547;28;20181;-57
2020/12/07 11:37:01;;;;;;;1.70;0.20;;;6.20;99.90;;;;;;5044063;28;20759;-60
2020/12/07 11:39:36;;;;;;;2.37;0.63;;;6.10;99.90;;;;;;5070525;28;20181;-57
2020/12/07 11:42:13;;;;;;;1.80;0.50;;;6.10;99.90;;;;;;5061700;28;20189;-57
2020/12/07 11:44:38;;;;;;;6.33;3.13;;;6.20;99.90;;;;;;5067429;28;20444;-61
2020/12/07 11:47:07;;;;;;;1.77;0.20;;;6.10;99.90;;;;;;5063620;28;20463;-57
2020/12/07 11:49:32;;;;;;;2.93;2.60;;;6.10;99.90;;;;;;5056883;28;20205;-59
2020/12/07 11:52:03;;;;;;;1.70;0.30;;;6.00;99.90;;;;;;5061577;28;20491;-59
2020/12/07 11:54:29;;;;;;;1.70;0.20;;;6.10;99.90;;;;;;5053123;28;20195;-58
2020/12/07 11:56:54;;;;;;;2.17;0.80;;;6.10;99.90;;;;;;5054070;28;20869;-58
2020/12/07 11:59:20;;;;;;;7.00;4.53;;;6.10;99.90;;;;;;5054195;28;20300;-58
2020/12/07 12:01:45;;;;;;;5.53;2.10;;;5.90;99.90;;;;;;5053610;28;20194;-58
2020/12/07 12:04:11;;;;;;;1.73;0.20;;;6.00;99.90;;;;;;5067182;28;20197;-57
2020/12/07 12:06:38;;;;;;;1.80;0.40;;;6.00;99.90;;;;;;5065436;28;20186;-59
2020/12/07 12:09:10;;;;;;;1.70;0.20;;;6.00;99.90;;;;;;5064189;28;20253;-59
2020/12/07 12:11:36;;;;;;;2.40;1.80;;;6.10;99.90;;;;;;5055287;28;20829;-58
2020/12/07 12:14:04;;;;;;;1.70;0.20;;;6.20;99.90;;;;;;5051788;28;20428;-59
2020/12/07 12:16:30;;;;;;;3.23;0.77;;;6.10;99.90;;;;;;5050360;28;20438;-59
2020/12/07 12:18:56;;;;;;;2.20;0.93;;;6.20;99.90;;;;;;5051701;28;20456;-59
2020/12/07 12:21:24;;;;;;;1.77;0.30;;;6.10;99.90;;;;;;5051702;28;20190;-57
2020/12/07 12:23:50;;;;;;;1.80;0.40;;;6.10;99.90;;;;;;5050424;28;20475;-58
2020/12/07 12:26:17;;;;;;;1.70;0.20;;;6.20;99.90;;;;;;5048622;28;20946;-58
2020/12/07 12:28:43;;;;;;;3.23;1.50;;;6.10;99.90;;;;;;5050103;28;20228;-58
2020/12/07 12:31:09;;;;;;;11.00;4.90;;;6.10;99.90;;;;;;5049616;28;20471;-57
2020/12/07 12:33:34;;;;;;;2.00;0.40;;;6.10;99.90;;;;;;5049165;28;20530;-59
2020/12/07 12:36:00;;;;;;;9.30;5.30;;;6.10;99.90;;;;;;5050397;28;20513;-58
2020/12/07 12:38:26;;;;;;;12.60;8.33;;;6.10;99.90;;;;;;5048857;28;20193;-58
2020/12/07 12:40:52;;;;;;;2.63;1.07;;;6.00;99.90;;;;;;5052252;28;20438;-59
2020/12/07 12:43:17;;;;;;;1.70;0.20;;;6.00;99.90;;;;;;5049679;28;20189;-57
2020/12/07 12:45:43;;;;;;;12.20;8.60;;;6.00;99.90;;;;;;5050870;28;20196;-56
2020/12/07 12:48:08;;;;;;;1.70;0.20;;;6.00;99.90;;;;;;5052280;28;20741;-60
2020/12/07 12:50:34;;;;;;;5.40;3.37;;;6.00;99.90;;;;;;5048682;28;20255;-57
2020/12/07 12:53:02;;;;;;;1.80;0.50;;;6.00;99.90;;;;;;5057120;28;20207;-64
2020/12/07 12:55:27;;;;;;;6.60;3.20;;;6.00;99.90;;;;;;5073998;28;20451;-56
2020/12/07 12:57:53;;;;;;;1.70;0.20;;;6.10;99.90;;;;;;5072409;28;20451;-58
2020/12/07 13:00:19;;;;;;;1.73;0.20;;;6.10;99.90;;;;;;5070344;28;20212;-57
2020/12/07 13:02:45;;;;;;;2.20;0.53;;;6.10;99.90;;;;;;5055661;28;20181;-60
2020/12/07 13:05:10;;;;;;;2.17;1.00;;;6.10;99.90;;;;;;5053533;28;20197;-57
2020/12/07 13:07:36;;;;;;;2.20;0.70;;;6.10;99.90;;;;;;5054066;28;20530;-58
2020/12/07 13:10:02;;;;;;;1.70;0.20;;;6.10;99.90;;;;;;5053145;28;20317;-57
2020/12/07 13:12:27;;;;;;;1.70;0.20;;;6.10;99.90;;;;;;5054281;28;20639;-57
2020/12/07 13:14:53;;;;;;;1.80;0.20;;;6.10;99.90;;;;;;5055331;28;20312;-58